Time;durP1;ratioP1;P1;durP2;ratioP2;P2;SDS_P1;SDS_P2;PMS_P1;PMS_P2;Temp;Humidity;BMP_temperature;BMP_pressure;BME280_temperature;BME280_humidity;BME280_pressure;Samples;Min_cycle;Max_cycle;Signal;HPM_P1;HPM_P2
2021/06/02 00:00:43;;;;;;;2.75;2.20;;;18.10;69.90;;;;;;2071357;28;20102;-69
2021/06/02 00:01:53;;;;;;;4.03;2.80;;;18.10;69.30;;;;;;2064227;28;20656;-69
2021/06/02 00:02:59;;;;;;;4.82;2.80;;;18.00;71.50;;;;;;2062603;28;20030;-69
2021/06/02 00:04:03;;;;;;;2.55;2.15;;;18.00;71.50;;;;;;2063291;28;20061;-69
2021/06/02 00:05:04;;;;;;;3.55;3.05;;;18.00;71.00;;;;;;2064160;28;20030;-69
2021/06/02 00:06:05;;;;;;;3.53;2.63;;;18.00;72.10;;;;;;2063595;28;20023;-69
2021/06/02 00:07:09;;;;;;;2.50;2.30;;;17.90;71.00;;;;;;2063685;28;20018;-69
2021/06/02 00:08:12;;;;;;;6.80;2.72;;;17.90;72.20;;;;;;2061950;28;20027;-69
2021/06/02 00:09:13;;;;;;;4.10;2.85;;;17.90;72.70;;;;;;2064424;28;20360;-69
2021/06/02 00:10:15;;;;;;;4.18;2.30;;;17.90;74.20;;;;;;2064446;28;20011;-69
2021/06/02 00:11:16;;;;;;;2.50;2.30;;;17.80;74.70;;;;;;2064054;28;20027;-69
2021/06/02 00:12:17;;;;;;;2.83;2.60;;;17.80;74.60;;;;;;2063772;28;20074;-69
2021/06/02 00:13:20;;;;;;;2.97;2.75;;;17.80;75.70;;;;;;2063969;28;20042;-69
2021/06/02 00:14:22;;;;;;;2.42;2.15;;;17.80;75.50;;;;;;2063802;28;20548;-69
2021/06/02 00:15:22;;;;;;;3.33;2.25;;;17.70;74.50;;;;;;2056511;28;20081;-69
2021/06/02 00:16:24;;;;;;;3.58;2.67;;;17.70;74.80;;;;;;2063032;28;20545;-69
2021/06/02 00:17:25;;;;;;;2.83;2.47;;;17.70;74.70;;;;;;2063798;28;20022;-69
2021/06/02 00:18:26;;;;;;;4.18;2.45;;;17.70;75.90;;;;;;2063903;28;20026;-69
2021/06/02 00:19:27;;;;;;;4.25;2.60;;;17.60;76.90;;;;;;2064041;28;20037;-69
2021/06/02 00:20:28;;;;;;;5.82;2.60;;;17.60;76.50;;;;;;2063730;28;20565;-69
2021/06/02 00:21:29;;;;;;;7.60;2.92;;;17.60;78.90;;;;;;2056001;28;20074;-69
2021/06/02 00:22:30;;;;;;;6.50;2.53;;;17.60;77.10;;;;;;2058475;28;20109;-69
2021/06/02 00:23:30;;;;;;;2.83;2.50;;;17.60;78.50;;;;;;2064172;28;20064;-69
2021/06/02 00:24:31;;;;;;;3.72;2.83;;;17.60;79.10;;;;;;2064237;28;20089;-69
2021/06/02 00:25:32;;;;;;;2.30;2.08;;;17.50;79.70;;;;;;2064279;28;20053;-69
2021/06/02 00:26:35;;;;;;;3.97;2.40;;;17.50;78.10;;;;;;2064275;28;20030;-69
2021/06/02 00:27:38;;;;;;;2.83;2.33;;;17.50;80.00;;;;;;2071623;28;20056;-69
2021/06/02 00:28:39;;;;;;;4.45;2.78;;;17.40;76.80;;;;;;2071557;28;20077;-69
2021/06/02 00:29:44;;;;;;;2.63;2.42;;;17.40;78.60;;;;;;2064301;28;20030;-69
2021/06/02 00:30:45;;;;;;;3.95;2.85;;;17.40;82.10;;;;;;2071763;28;20037;-69
2021/06/02 00:31:47;;;;;;;3.92;2.55;;;17.40;82.30;;;;;;2071003;28;20111;-69
2021/06/02 00:32:48;;;;;;;3.53;2.70;;;17.40;82.90;;;;;;2070204;28;20114;-69
2021/06/02 00:33:49;;;;;;;2.78;2.55;;;17.40;83.30;;;;;;2062884;28;20072;-69
2021/06/02 00:34:52;;;;;;;2.95;2.67;;;17.40;81.80;;;;;;2055796;28;20018;-69
2021/06/02 00:35:53;;;;;;;6.00;3.05;;;17.30;83.50;;;;;;2071550;28;20021;-69
2021/06/02 00:36:54;;;;;;;3.40;3.08;;;17.30;83.30;;;;;;2071670;28;20105;-69
2021/06/02 00:37:54;;;;;;;4.05;2.60;;;17.30;82.90;;;;;;2071538;28;20017;-69
2021/06/02 00:38:56;;;;;;;5.38;3.47;;;17.30;82.90;;;;;;2064444;28;20022;-69
2021/06/02 00:39:57;;;;;;;2.88;2.28;;;17.30;84.50;;;;;;2064198;28;20022;-69
2021/06/02 00:40:58;;;;;;;4.78;2.65;;;17.20;84.00;;;;;;2063904;28;20026;-69
2021/06/02 00:42:00;;;;;;;2.72;2.50;;;17.20;82.30;;;;;;2063981;28;20109;-69
2021/06/02 00:43:03;;;;;;;3.33;2.70;;;17.20;81.40;;;;;;2063989;28;20026;-69
2021/06/02 00:44:09;;;;;;;2.53;2.20;;;17.20;81.30;;;;;;2055237;28;20051;-69
2021/06/02 00:45:11;;;;;;;4.72;2.90;;;17.20;82.30;;;;;;2056290;28;20073;-69
2021/06/02 00:46:14;;;;;;;3.10;2.72;;;17.20;83.80;;;;;;2063671;28;20418;-69
2021/06/02 00:47:15;;;;;;;4.05;2.85;;;17.10;84.30;;;;;;2064198;28;20014;-69
2021/06/02 00:48:18;;;;;;;2.63;2.42;;;17.10;82.40;;;;;;2064010;28;20014;-69
2021/06/02 00:49:24;;;;;;;3.63;2.70;;;17.10;81.90;;;;;;2071807;28;20032;-69
2021/06/02 00:50:25;;;;;;;3.90;2.60;;;17.10;84.60;;;;;;2071001;28;20386;-69
2021/06/02 00:51:26;;;;;;;4.60;2.90;;;17.10;86.00;;;;;;2063608;28;20034;-69
2021/06/02 00:52:27;;;;;;;3.25;2.78;;;17.00;87.50;;;;;;2063551;28;20501;-69
2021/06/02 00:53:29;;;;;;;2.95;2.70;;;17.00;87.40;;;;;;2071473;28;20113;-69
2021/06/02 00:54:32;;;;;;;3.30;2.85;;;17.00;87.60;;;;;;2071650;28;20120;-69
2021/06/02 00:55:33;;;;;;;3.58;2.75;;;17.00;86.40;;;;;;2064105;28;20417;-69
2021/06/02 00:56:53;;;;;;;3.50;2.78;;;17.00;88.50;;;;;;2063903;28;20117;-69
2021/06/02 00:57:55;;;;;;;4.25;2.80;;;16.90;87.20;;;;;;2064309;28;20029;-69
2021/06/02 00:58:59;;;;;;;3.83;2.60;;;16.90;86.50;;;;;;2063474;28;20019;-69
2021/06/02 01:00:07;;;;;;;8.75;2.88;;;16.90;87.30;;;;;;2063612;28;20068;-69
2021/06/02 01:01:09;;;;;;;3.67;2.80;;;16.90;88.30;;;;;;2064040;28;20490;-69
2021/06/02 01:02:13;;;;;;;4.05;2.80;;;16.90;89.80;;;;;;2058789;28;20530;-69
2021/06/02 01:03:18;;;;;;;3.55;3.08;;;16.90;89.20;;;;;;2064229;28;20852;-69
2021/06/02 01:04:23;;;;;;;2.80;2.60;;;16.80;89.30;;;;;;2064040;28;20049;-69
2021/06/02 01:05:25;;;;;;;3.35;2.88;;;16.80;90.70;;;;;;2064419;28;20026;-69
2021/06/02 01:06:27;;;;;;;5.10;2.67;;;16.80;91.00;;;;;;2063054;28;20105;-69
2021/06/02 01:07:28;;;;;;;2.80;2.58;;;16.80;88.40;;;;;;2063504;28;20479;-69
2021/06/02 01:08:30;;;;;;;3.13;2.50;;;16.80;90.30;;;;;;2063327;28;20530;-69
2021/06/02 01:09:34;;;;;;;2.83;2.28;;;16.80;87.80;;;;;;2063360;28;20027;-69
2021/06/02 01:10:36;;;;;;;4.97;2.70;;;16.80;90.00;;;;;;2070901;28;20022;-69
2021/06/02 01:11:39;;;;;;;3.08;2.80;;;16.70;90.60;;;;;;2064203;28;20084;-69
2021/06/02 01:12:41;;;;;;;3.97;3.13;;;16.70;89.70;;;;;;2063255;28;20030;-69
2021/06/02 01:13:43;;;;;;;3.30;3.00;;;16.70;87.30;;;;;;2063750;28;20030;-69
2021/06/02 01:14:45;;;;;;;3.63;2.67;;;16.70;88.20;;;;;;2061652;28;20022;-69
2021/06/02 01:15:48;;;;;;;3.38;2.90;;;16.70;88.70;;;;;;2064391;28;20490;-69
2021/06/02 01:16:49;;;;;;;4.93;3.05;;;16.70;87.30;;;;;;2064067;28;20026;-69
2021/06/02 01:17:50;;;;;;;6.70;2.70;;;16.70;88.70;;;;;;2063695;28;20649;-69
2021/06/02 01:18:51;;;;;;;3.22;2.92;;;16.70;86.80;;;;;;2063806;28;20022;-69
2021/06/02 01:19:53;;;;;;;3.50;2.38;;;16.70;90.60;;;;;;2061643;28;20065;-69
2021/06/02 01:21:00;;;;;;;6.22;2.90;;;16.70;91.30;;;;;;2067192;28;20036;-69
2021/06/02 01:22:02;;;;;;;3.13;2.83;;;16.70;92.30;;;;;;2070612;28;20022;-69
2021/06/02 01:23:04;;;;;;;5.53;2.97;;;16.60;91.70;;;;;;2063575;28;20023;-69
2021/06/02 01:24:05;;;;;;;5.15;3.17;;;16.60;91.20;;;;;;2063948;28;20023;-69
2021/06/02 01:25:11;;;;;;;3.53;2.72;;;16.60;91.60;;;;;;2074249;28;20117;-69
2021/06/02 01:26:12;;;;;;;3.92;2.85;;;16.60;92.50;;;;;;2077523;28;20022;-69
2021/06/02 01:27:14;;;;;;;10.52;3.13;;;16.60;90.40;;;;;;2064032;28;20391;-69
2021/06/02 01:28:15;;;;;;;2.92;2.65;;;16.60;91.50;;;;;;2071200;28;20059;-69
2021/06/02 01:29:16;;;;;;;3.47;2.92;;;16.60;91.90;;;;;;2069076;28;20033;-69
2021/06/02 01:30:20;;;;;;;2.58;2.30;;;16.50;92.20;;;;;;2058908;28;20092;-68
2021/06/02 01:31:59;;;;;;;2.72;2.40;;;16.50;90.70;;;;;;2059305;28;20023;-69
2021/06/02 01:33:40;;;;;;;4.22;2.80;;;16.50;91.80;;;;;;2054822;28;20113;-69
2021/06/02 01:35:03;;;;;;;3.50;3.20;;;16.40;93.30;;;;;;2058060;28;20034;-69
2021/06/02 01:36:10;;;;;;;3.88;2.83;;;16.40;93.20;;;;;;2063605;28;20097;-69
2021/06/02 01:37:32;;;;;;;2.92;2.53;;;16.40;92.80;;;;;;2063918;28;20057;-69
2021/06/02 01:38:53;;;;;;;3.33;2.60;;;16.30;94.50;;;;;;2063982;28;20620;-69
2021/06/02 01:40:30;;;;;;;3.80;3.08;;;16.30;94.00;;;;;;2063643;28;20026;-69
2021/06/02 01:41:39;;;;;;;3.35;2.65;;;16.30;93.90;;;;;;2057313;28;20459;-69
2021/06/02 01:43:27;;;;;;;6.03;3.65;;;16.30;92.90;;;;;;2055340;28;20125;-69
2021/06/02 01:44:46;;;;;;;4.43;2.70;;;16.30;92.90;;;;;;2031770;29;20032;-68
2021/06/02 01:46:13;;;;;;;3.00;2.63;;;16.20;91.60;;;;;;2040619;29;20059;-68
2021/06/02 01:47:49;;;;;;;3.20;2.90;;;16.20;91.90;;;;;;2032407;29;20044;-69
2021/06/02 01:48:53;;;;;;;4.88;3.17;;;16.20;94.00;;;;;;2037087;29;20722;-69
2021/06/02 01:50:20;;;;;;;3.38;3.08;;;16.20;92.80;;;;;;2044905;28;20031;-69
2021/06/02 01:51:59;;;;;;;2.92;2.60;;;16.10;93.00;;;;;;2056569;28;20053;-69
2021/06/02 01:53:15;;;;;;;3.00;2.70;;;16.10;93.80;;;;;;2072335;28;20018;-69
2021/06/02 01:54:40;;;;;;;4.35;2.50;;;16.10;94.10;;;;;;2080876;28;20458;-69
2021/06/02 01:56:08;;;;;;;4.70;3.45;;;16.10;93.30;;;;;;2073573;28;20054;-69
2021/06/02 01:57:27;;;;;;;2.85;2.65;;;16.10;94.90;;;;;;2057149;28;20034;-69
2021/06/02 01:59:07;;;;;;;5.03;3.45;;;16.10;95.20;;;;;;2063266;28;20532;-69
2021/06/02 02:00:14;;;;;;;;;;;16.00;96.50;;;;;;2064189;28;20062;-69
2021/06/02 02:01:48;;;;;;;3.97;2.85;;;15.90;98.60;;;;;;2066658;28;19937;-69
2021/06/02 02:03:05;;;;;;;5.65;3.20;;;15.90;96.40;;;;;;2060268;28;20042;-69
2021/06/02 02:04:28;;;;;;;4.20;2.95;;;15.90;95.00;;;;;;2065814;28;20633;-69
2021/06/02 02:05:57;;;;;;;6.07;2.97;;;15.90;94.70;;;;;;2067784;28;20073;-69
2021/06/02 02:07:22;;;;;;;5.13;2.83;;;15.90;96.80;;;;;;2073864;28;20022;-69
2021/06/02 02:08:38;;;;;;;4.78;3.25;;;15.90;95.70;;;;;;2067765;28;20022;-69
2021/06/02 02:10:07;;;;;;;4.35;2.97;;;15.90;94.60;;;;;;2066458;28;20370;-69
2021/06/02 02:11:28;;;;;;;3.15;2.80;;;15.90;96.40;;;;;;2063585;28;20113;-69
2021/06/02 02:12:47;;;;;;;3.00;2.70;;;15.90;96.10;;;;;;2059900;28;20193;-69
2021/06/02 02:14:12;;;;;;;4.22;2.88;;;15.80;95.70;;;;;;2065627;28;20154;-69
2021/06/02 02:15:21;;;;;;;7.25;3.60;;;15.80;96.30;;;;;;2066297;28;20102;-69
2021/06/02 02:16:55;;;;;;;6.95;3.42;;;15.90;96.60;;;;;;2066480;28;20033;-69
2021/06/02 02:18:22;;;;;;;4.05;2.80;;;15.80;96.90;;;;;;2066643;28;20027;-69
2021/06/02 02:19:25;;;;;;;4.07;3.30;;;15.80;96.90;;;;;;2066750;28;20069;-69
2021/06/02 02:20:37;;;;;;;5.13;3.25;;;15.80;94.80;;;;;;2066384;28;20026;-69
2021/06/02 02:22:11;;;;;;;5.55;3.47;;;15.80;95.70;;;;;;2065928;28;20027;-69
2021/06/02 02:23:41;;;;;;;4.75;3.50;;;15.80;96.50;;;;;;2058436;28;20027;-68
2021/06/02 02:24:56;;;;;;;9.00;3.58;;;15.80;97.70;;;;;;2058523;28;20027;-68
2021/06/02 02:26:10;;;;;;;5.18;3.15;;;15.80;97.20;;;;;;2064353;28;20451;-69
2021/06/02 02:27:39;;;;;;;5.43;3.28;;;15.80;96.00;;;;;;2073715;28;20046;-69
2021/06/02 02:28:56;;;;;;;4.72;3.53;;;15.80;95.20;;;;;;2070517;28;20092;-69
2021/06/02 02:30:07;;;;;;;4.60;3.63;;;15.70;95.90;;;;;;2066793;28;20066;-69
2021/06/02 02:31:34;;;;;;;6.88;3.75;;;15.70;95.60;;;;;;2065914;28;20014;-69
2021/06/02 02:32:46;;;;;;;6.88;3.47;;;15.70;96.60;;;;;;2049961;28;20039;-69
2021/06/02 02:34:11;;;;;;;6.03;3.55;;;15.70;95.90;;;;;;2062197;28;20030;-69
2021/06/02 02:35:34;;;;;;;4.80;3.45;;;15.70;96.70;;;;;;2066461;28;20026;-69
2021/06/02 02:36:42;;;;;;;3.53;3.22;;;15.70;97.20;;;;;;2066633;28;20019;-69
2021/06/02 02:38:07;;;;;;;7.07;3.85;;;15.70;95.60;;;;;;2066683;28;20018;-69
2021/06/02 02:39:16;;;;;;;4.60;3.63;;;15.70;96.80;;;;;;2066244;28;20030;-69
2021/06/02 02:40:28;;;;;;;3.50;3.20;;;15.70;96.80;;;;;;2066075;28;20522;-69
2021/06/02 02:41:57;;;;;;;3.95;3.58;;;15.70;96.10;;;;;;2066365;28;20034;-69
2021/06/02 02:43:12;;;;;;;3.85;3.05;;;15.70;97.70;;;;;;2065866;28;20035;-69
2021/06/02 02:44:58;;;;;;;4.80;3.55;;;15.60;96.80;;;;;;2066371;28;20068;-69
2021/06/02 02:46:15;;;;;;;9.18;4.85;;;15.60;97.70;;;;;;2058313;28;20018;-69
2021/06/02 02:47:41;;;;;;;4.93;3.67;;;15.50;97.80;;;;;;2065288;28;20077;-69
2021/06/02 02:49:12;;;;;;;4.70;4.20;;;15.60;97.40;;;;;;2066292;28;20110;-69
2021/06/02 02:50:27;;;;;;;5.78;3.70;;;15.50;97.70;;;;;;2065506;28;20618;-69
2021/06/02 02:51:43;;;;;;;6.22;4.30;;;15.50;97.00;;;;;;2066201;28;20387;-69
2021/06/02 02:52:50;;;;;;;5.88;4.28;;;15.50;97.40;;;;;;2065846;28;20030;-69
2021/06/02 02:54:02;;;;;;;6.32;3.95;;;15.50;96.20;;;;;;2066375;28;20038;-69
2021/06/02 02:55:11;;;;;;;5.00;3.95;;;15.50;96.20;;;;;;2066410;28;20120;-69
2021/06/02 02:56:20;;;;;;;5.10;3.90;;;15.50;97.50;;;;;;2072479;28;20495;-69
2021/06/02 02:57:35;;;;;;;4.13;3.42;;;15.50;97.20;;;;;;2072915;28;20038;-69
2021/06/02 02:59:04;;;;;;;5.40;4.00;;;15.50;97.50;;;;;;2065738;28;20555;-69
2021/06/02 03:00:11;;;;;;;7.57;4.30;;;15.50;96.80;;;;;;2050617;28;20804;-69
2021/06/02 03:01:21;;;;;;;4.85;3.30;;;15.40;97.80;;;;;;2081563;28;20030;-69
2021/06/02 03:02:39;;;;;;;6.43;3.92;;;15.40;97.20;;;;;;2077803;28;20030;-69
2021/06/02 03:04:05;;;;;;;4.53;3.97;;;15.40;97.20;;;;;;2065458;28;20088;-69
2021/06/02 03:05:11;;;;;;;5.20;4.20;;;15.40;98.40;;;;;;2065481;28;20022;-69
2021/06/02 03:06:20;;;;;;;8.13;4.40;;;15.40;97.70;;;;;;2065138;28;20438;-69
2021/06/02 03:07:22;;;;;;;5.53;4.65;;;15.40;98.40;;;;;;2065439;28;20026;-69
2021/06/02 03:08:32;;;;;;;9.30;5.07;;;15.40;98.70;;;;;;2063110;28;20033;-69
2021/06/02 03:10:08;;;;;;;5.70;4.22;;;15.40;99.60;;;;;;2061394;28;20035;-69
2021/06/02 03:11:23;;;;;;;4.75;3.70;;;15.30;99.90;;;;;;2054295;28;20062;-69
2021/06/02 03:12:51;;;;;;;4.82;4.03;;;15.30;98.20;;;;;;2064541;28;20026;-69
2021/06/02 03:14:01;;;;;;;7.05;4.28;;;15.30;99.30;;;;;;2065321;28;20364;-69
2021/06/02 03:15:14;;;;;;;4.93;4.20;;;15.30;98.40;;;;;;2064849;28;20105;-69
2021/06/02 03:16:23;;;;;;;4.97;3.80;;;15.30;99.00;;;;;;2064771;28;20018;-69
2021/06/02 03:17:45;;;;;;;5.53;4.13;;;15.30;98.50;;;;;;2060654;28;20495;-69
2021/06/02 03:19:02;;;;;;;6.38;3.75;;;15.30;99.90;;;;;;2064618;28;20407;-69
2021/06/02 03:20:21;;;;;;;4.85;3.55;;;15.30;99.00;;;;;;2064468;28;20110;-69
2021/06/02 03:22:07;;;;;;;4.03;3.63;;;15.30;97.60;;;;;;2064317;28;20077;-69
2021/06/02 03:23:15;;;;;;;5.03;4.40;;;15.20;98.00;;;;;;2052671;28;20035;-69
2021/06/02 03:24:43;;;;;;;5.53;4.05;;;15.20;99.10;;;;;;2061907;28;20037;-69
2021/06/02 03:26:00;;;;;;;6.13;4.00;;;15.20;99.20;;;;;;2065154;28;20471;-69
2021/06/02 03:27:13;;;;;;;10.60;4.78;;;15.10;98.20;;;;;;2063812;28;20030;-69
2021/06/02 03:28:30;;;;;;;5.97;4.57;;;15.10;99.50;;;;;;2064750;28;20018;-69
2021/06/02 03:30:16;;;;;;;4.82;4.35;;;15.10;99.30;;;;;;2064718;28;20045;-69
2021/06/02 03:31:23;;;;;;;6.80;3.92;;;15.20;99.40;;;;;;2031870;29;20294;-69
2021/06/02 03:33:01;;;;;;;5.60;4.18;;;15.10;98.50;;;;;;2026623;29;20446;-69
2021/06/02 03:34:09;;;;;;;5.18;4.25;;;15.10;99.90;;;;;;2056040;28;20410;-69
2021/06/02 03:35:40;;;;;;;5.03;3.70;;;15.10;99.10;;;;;;2064829;28;20014;-69
2021/06/02 03:37:06;;;;;;;5.70;4.13;;;15.00;99.70;;;;;;2064492;28;20034;-69
2021/06/02 03:38:45;;;;;;;5.80;4.20;;;15.00;99.00;;;;;;2065097;28;20105;-69
2021/06/02 03:40:02;;;;;;;7.68;4.75;;;15.00;99.30;;;;;;2064926;28;20031;-69
2021/06/02 03:41:40;;;;;;;8.18;4.82;;;15.00;99.60;;;;;;2064921;28;20030;-69
2021/06/02 03:42:55;;;;;;;4.03;3.63;;;15.00;99.70;;;;;;2064250;28;20026;-69
2021/06/02 03:44:11;;;;;;;5.47;4.57;;;14.90;99.00;;;;;;2064688;28;20490;-69
2021/06/02 03:45:32;;;;;;;7.13;4.07;;;15.00;99.40;;;;;;2064654;28;20027;-69
2021/06/02 03:47:00;;;;;;;7.45;4.28;;;14.90;98.80;;;;;;2064725;28;20046;-69
2021/06/02 03:48:13;;;;;;;6.18;4.65;;;14.90;99.90;;;;;;2056712;28;20091;-69
2021/06/02 03:49:22;;;;;;;9.82;5.18;;;14.90;99.30;;;;;;2064720;28;20023;-69
2021/06/02 03:50:31;;;;;;;6.22;5.07;;;14.90;99.40;;;;;;2064789;28;20019;-69
2021/06/02 03:52:05;;;;;;;7.47;4.47;;;14.90;99.20;;;;;;2064644;28;20081;-69
2021/06/02 03:53:30;;;;;;;5.70;4.85;;;14.80;99.90;;;;;;2049347;28;20035;-69
2021/06/02 03:54:33;;;;;;;5.55;4.43;;;14.90;99.60;;;;;;2064659;28;20089;-69
2021/06/02 03:55:57;;;;;;;5.20;4.53;;;14.90;99.80;;;;;;2064727;28;20014;-69
2021/06/02 03:57:00;;;;;;;6.10;4.85;;;14.90;99.60;;;;;;2064035;28;20027;-69
2021/06/02 03:58:14;;;;;;;6.25;4.00;;;14.90;99.90;;;;;;2064409;28;20044;-69
2021/06/02 03:59:22;;;;;;;4.47;3.75;;;14.90;99.90;;;;;;2064819;28;20470;-69
2021/06/02 04:00:34;;;;;;;6.97;4.30;;;14.90;99.10;;;;;;2064416;28;20122;-69
2021/06/02 04:01:58;;;;;;;6.00;4.50;;;14.90;99.30;;;;;;2064552;28;20085;-69
2021/06/02 04:03:02;;;;;;;5.70;4.25;;;14.90;99.80;;;;;;2063763;28;20422;-69
2021/06/02 04:04:21;;;;;;;6.80;4.45;;;14.90;99.00;;;;;;2064707;28;20330;-69
2021/06/02 04:05:33;;;;;;;6.28;4.40;;;14.90;99.90;;;;;;2057439;28;20073;-69
2021/06/02 04:06:59;;;;;;;6.32;4.20;;;14.90;99.90;;;;;;2064243;28;20494;-69
2021/06/02 04:08:23;;;;;;;5.15;3.92;;;14.90;99.30;;;;;;2060449;28;20042;-69
2021/06/02 04:09:26;;;;;;;5.07;3.95;;;14.90;99.90;;;;;;2064420;28;20100;-69
2021/06/02 04:10:45;;;;;;;7.25;4.60;;;14.90;99.70;;;;;;2064325;28;20025;-69
2021/06/02 04:12:17;;;;;;;5.75;4.38;;;14.90;99.90;;;;;;2064662;28;20054;-69
2021/06/02 04:13:43;;;;;;;9.32;4.35;;;14.90;99.90;;;;;;2063912;28;20018;-69
2021/06/02 04:14:57;;;;;;;5.50;3.95;;;14.90;99.90;;;;;;2064141;28;20030;-69
2021/06/02 04:16:08;;;;;;;4.40;4.00;;;14.90;99.80;;;;;;2064370;28;20022;-69
2021/06/02 04:17:10;;;;;;;6.45;4.25;;;14.90;99.90;;;;;;2063901;28;20565;-69
2021/06/02 04:18:12;;;;;;;7.50;4.03;;;14.90;99.90;;;;;;2064598;28;20019;-69
2021/06/02 04:19:17;;;;;;;9.57;4.63;;;14.90;99.70;;;;;;2064243;28;20034;-69
2021/06/02 04:20:19;;;;;;;6.80;4.20;;;15.00;99.90;;;;;;2064068;28;20528;-69
2021/06/02 04:21:23;;;;;;;6.50;4.40;;;15.00;99.90;;;;;;2063500;28;20034;-69
2021/06/02 04:22:24;;;;;;;5.50;4.18;;;15.00;99.90;;;;;;2062823;28;20023;-69
2021/06/02 04:23:26;;;;;;;6.72;4.43;;;14.90;99.90;;;;;;2064494;28;20026;-69
2021/06/02 04:24:31;;;;;;;6.97;4.57;;;15.00;99.70;;;;;;2064235;28;20037;-69
2021/06/02 04:25:32;;;;;;;5.68;4.57;;;15.00;99.90;;;;;;2064436;28;20029;-69
2021/06/02 04:26:35;;;;;;;9.15;4.18;;;15.00;99.90;;;;;;2064394;28;20049;-69
2021/06/02 04:27:38;;;;;;;5.90;5.07;;;15.00;99.90;;;;;;2063984;28;20023;-69
2021/06/02 04:28:39;;;;;;;6.90;5.07;;;15.00;99.90;;;;;;2064529;28;20470;-69
2021/06/02 04:29:44;;;;;;;7.20;4.93;;;15.00;99.90;;;;;;2064191;28;20105;-69
2021/06/02 04:30:49;;;;;;;7.65;5.38;;;15.00;99.90;;;;;;2064253;28;20022;-69
2021/06/02 04:31:55;;;;;;;6.88;4.60;;;15.00;99.90;;;;;;2062665;28;20028;-69
2021/06/02 04:32:59;;;;;;;5.63;4.40;;;15.00;99.90;;;;;;2063904;28;20033;-69
2021/06/02 04:34:00;;;;;;;9.25;5.10;;;15.00;99.90;;;;;;2063571;28;20041;-69
2021/06/02 04:35:01;;;;;;;5.20;4.25;;;15.00;99.90;;;;;;2064575;28;20022;-69
2021/06/02 04:36:04;;;;;;;6.80;4.32;;;15.00;99.90;;;;;;2064258;28;20482;-71
2021/06/02 04:37:07;;;;;;;4.88;3.95;;;15.00;99.90;;;;;;2063283;28;20023;-69
2021/06/02 04:38:08;;;;;;;5.30;4.07;;;15.00;99.90;;;;;;2062384;28;20033;-69
2021/06/02 04:39:09;;;;;;;6.15;4.60;;;15.00;99.90;;;;;;2064213;28;20471;-69
2021/06/02 04:40:10;;;;;;;7.85;4.70;;;15.10;99.90;;;;;;2064279;28;20029;-69
2021/06/02 04:41:11;;;;;;;8.93;4.90;;;15.10;99.90;;;;;;2063881;28;20956;-69
2021/06/02 04:42:12;;;;;;;6.57;4.90;;;15.10;99.90;;;;;;2063217;28;20121;-69
2021/06/02 04:43:14;;;;;;;7.63;4.30;;;15.10;99.90;;;;;;2063108;28;20029;-69
2021/06/02 04:44:15;;;;;;;5.30;3.90;;;15.10;99.90;;;;;;2064103;28;20463;-69
2021/06/02 04:45:23;;;;;;;5.50;4.63;;;15.10;99.90;;;;;;2063668;28;20030;-69
2021/06/02 04:46:24;;;;;;;4.65;4.20;;;15.20;99.90;;;;;;2063486;28;20098;-69
2021/06/02 04:47:25;;;;;;;5.18;4.32;;;15.20;99.90;;;;;;2063194;28;20030;-69
2021/06/02 04:48:26;;;;;;;5.93;3.78;;;15.20;99.90;;;;;;2063662;28;20489;-71
2021/06/02 04:49:51;;;;;;;7.03;4.63;;;15.30;99.90;;;;;;2063258;28;20038;-71
2021/06/02 04:51:10;;;;;;;6.38;3.92;;;15.30;99.90;;;;;;2063983;28;20014;-69
2021/06/02 04:52:32;;;;;;;3.72;3.42;;;15.40;99.90;;;;;;2070330;28;20018;-69
2021/06/02 04:54:04;;;;;;;4.93;4.38;;;15.40;99.90;;;;;;2067914;28;20087;-69
2021/06/02 04:55:48;;;;;;;6.30;4.10;;;15.40;99.90;;;;;;2062588;28;20406;-69
2021/06/02 04:57:09;;;;;;;6.88;3.88;;;15.40;99.90;;;;;;2062674;28;20512;-69
2021/06/02 04:58:42;;;;;;;5.22;3.97;;;15.50;99.90;;;;;;2062564;28;20036;-69
2021/06/02 05:00:04;;;;;;;6.18;4.28;;;15.40;99.90;;;;;;2064100;28;20026;-69
2021/06/02 05:01:33;;;;;;;6.82;4.18;;;15.50;99.90;;;;;;2061545;28;20026;-69
2021/06/02 05:03:07;;;;;;;10.73;4.43;;;15.50;99.90;;;;;;2063176;28;20027;-69
2021/06/02 05:04:50;;;;;;;6.25;4.00;;;15.50;99.90;;;;;;2062226;28;20482;-69
2021/06/02 05:06:31;;;;;;;6.95;3.83;;;15.50;99.90;;;;;;2053752;28;20039;-69
2021/06/02 05:07:54;;;;;;;5.03;4.50;;;15.50;99.90;;;;;;2062508;28;20372;-69
2021/06/02 05:09:38;;;;;;;4.78;3.97;;;15.60;99.90;;;;;;2063208;28;20033;-69
2021/06/02 05:11:17;;;;;;;4.75;4.00;;;15.60;99.90;;;;;;2063298;28;20022;-69
2021/06/02 05:12:56;;;;;;;9.85;4.65;;;15.60;99.90;;;;;;2063042;28;20034;-69
2021/06/02 05:14:15;;;;;;;7.80;4.78;;;15.70;99.90;;;;;;2061475;28;20034;-69
2021/06/02 05:15:53;;;;;;;8.10;4.07;;;15.70;99.90;;;;;;2063608;28;20057;-69
2021/06/02 05:17:28;;;;;;;4.90;4.15;;;15.80;99.90;;;;;;2062109;28;20032;-71
2021/06/02 05:19:18;;;;;;;9.02;4.22;;;15.80;99.90;;;;;;2062155;28;20041;-69
2021/06/02 05:22:28;;;;;;;6.03;4.32;;;16.00;99.90;;;;;;2046185;28;20043;-69
2021/06/02 05:23:28;;;;;;;5.40;3.90;;;16.20;99.90;;;;;;2061464;28;20030;-69
2021/06/02 05:25:00;;;;;;;6.65;4.78;;;16.30;99.90;;;;;;2063334;28;20050;-69
2021/06/02 05:26:32;;;;;;;6.57;4.50;;;16.50;99.90;;;;;;2063306;28;20113;-69
2021/06/02 05:27:55;;;;;;;7.15;3.88;;;16.70;99.90;;;;;;2062527;28;20029;-69
2021/06/02 05:29:02;;;;;;;5.13;3.80;;;16.80;99.90;;;;;;2060713;28;20023;-69
2021/06/02 05:30:40;;;;;;;4.30;3.85;;;17.00;99.90;;;;;;2060741;28;20535;-71
2021/06/02 05:32:16;;;;;;;5.88;3.78;;;17.20;99.90;;;;;;2062774;28;20135;-69
2021/06/02 05:33:34;;;;;;;5.45;4.00;;;17.40;99.70;;;;;;2030302;29;20087;-70
2021/06/02 05:34:52;;;;;;;8.80;4.50;;;17.60;99.90;;;;;;2039288;28;20449;-69
2021/06/02 05:36:23;;;;;;;6.15;4.05;;;17.80;98.80;;;;;;2066036;28;20022;-69
2021/06/02 05:37:51;;;;;;;6.72;3.83;;;18.00;98.70;;;;;;2063492;28;20072;-69
2021/06/02 05:38:54;;;;;;;5.57;3.90;;;18.20;98.00;;;;;;2069938;28;20018;-69
2021/06/02 05:40:01;;;;;;;6.00;4.88;;;18.40;98.20;;;;;;2062533;28;20026;-69
2021/06/02 05:41:52;;;;;;;5.30;4.30;;;18.60;97.10;;;;;;2060724;28;20461;-69
2021/06/02 05:43:11;;;;;;;7.70;4.82;;;18.70;94.70;;;;;;2063282;28;20500;-69
2021/06/02 05:44:36;;;;;;;6.15;4.55;;;18.90;94.80;;;;;;2062431;28;20030;-69
2021/06/02 05:45:52;;;;;;;10.32;4.38;;;19.10;93.60;;;;;;2063089;28;20624;-69
2021/06/02 05:47:18;;;;;;;10.75;5.15;;;19.30;94.60;;;;;;2062714;28;20026;-69
2021/06/02 05:49:02;;;;;;;4.95;4.07;;;19.50;93.50;;;;;;2063244;28;20026;-69
2021/06/02 05:50:21;;;;;;;13.68;4.72;;;19.60;92.60;;;;;;2061183;28;20120;-69
2021/06/02 05:52:19;;;;;;;5.75;4.15;;;19.80;90.90;;;;;;2063334;28;20026;-69
2021/06/02 05:53:49;;;;;;;6.75;3.65;;;20.00;90.70;;;;;;2052307;28;20095;-69
2021/06/02 05:55:08;;;;;;;4.57;3.67;;;20.30;87.60;;;;;;2051696;28;20106;-69
2021/06/02 05:56:30;;;;;;;4.53;3.45;;;20.40;90.60;;;;;;2052937;28;20038;-69
2021/06/02 05:57:34;;;;;;;6.60;3.35;;;20.60;86.10;;;;;;2055258;28;20675;-69
2021/06/02 05:58:41;;;;;;;6.47;3.40;;;20.80;87.60;;;;;;2055280;28;20090;-69
2021/06/02 06:00:04;;;;;;;6.03;3.30;;;20.90;86.60;;;;;;2063357;28;20551;-69
2021/06/02 06:01:16;;;;;;;8.25;3.70;;;21.10;83.50;;;;;;2061191;28;20022;-69
2021/06/02 06:02:50;;;;;;;3.60;3.13;;;21.30;79.80;;;;;;2060086;28;20026;-69
2021/06/02 06:04:05;;;;;;;6.95;3.40;;;21.40;81.00;;;;;;2062850;28;20026;-69
2021/06/02 06:05:19;;;;;;;3.85;3.45;;;21.60;76.90;;;;;;2062472;28;20022;-69
2021/06/02 06:06:42;;;;;;;4.18;2.72;;;21.70;76.00;;;;;;2062611;28;20506;-69
2021/06/02 06:07:55;;;;;;;7.10;2.60;;;21.90;71.50;;;;;;2062993;28;20022;-69
2021/06/02 06:09:09;;;;;;;3.58;2.97;;;22.00;76.30;;;;;;2063360;28;20474;-69
2021/06/02 06:10:54;;;;;;;5.45;2.63;;;22.10;72.70;;;;;;2063026;28;20017;-69
2021/06/02 06:12:05;;;;;;;4.35;2.70;;;22.30;67.80;;;;;;2047623;28;20081;-70
2021/06/02 06:13:41;;;;;;;5.25;3.00;;;22.40;67.40;;;;;;2061540;28;20022;-69
2021/06/02 06:15:05;;;;;;;8.38;2.28;;;22.60;66.00;;;;;;2063466;28;20030;-69
2021/06/02 06:16:26;;;;;;;3.72;2.95;;;22.70;67.70;;;;;;2062758;28;20041;-69
2021/06/02 06:18:07;;;;;;;4.70;2.55;;;22.80;65.30;;;;;;2062131;28;20061;-69
2021/06/02 06:19:32;;;;;;;4.32;2.20;;;23.00;64.00;;;;;;2041340;28;20071;-69
2021/06/02 06:20:59;;;;;;;4.53;2.47;;;23.10;60.10;;;;;;2063234;28;20029;-69
2021/06/02 06:22:05;;;;;;;2.75;2.20;;;23.20;58.80;;;;;;2059490;28;20030;-69
2021/06/02 06:23:09;;;;;;;3.42;2.40;;;23.30;58.50;;;;;;2062612;28;20026;-69
2021/06/02 06:24:18;;;;;;;5.05;2.30;;;23.30;58.40;;;;;;2062157;28;20394;-69
2021/06/02 06:25:36;;;;;;;4.13;1.95;;;23.40;56.40;;;;;;2063145;28;20041;-69
2021/06/02 06:27:02;;;;;;;2.42;1.83;;;23.50;58.60;;;;;;2060302;28;20423;-69
2021/06/02 06:28:14;;;;;;;3.45;1.98;;;23.60;55.20;;;;;;2061999;28;20062;-69
2021/06/02 06:29:25;;;;;;;5.22;2.08;;;23.70;55.60;;;;;;2059099;28;20026;-69
2021/06/02 06:30:34;;;;;;;3.10;2.78;;;23.80;55.70;;;;;;2062612;28;20034;-69